createdAt,value
2022-12-05T00:01:36.451Z,3.07
2022-12-05T00:04:06.155Z,4.16
2022-12-05T00:06:34.187Z,3.31
2022-12-05T00:09:01.622Z,4.15
2022-12-05T00:11:31.594Z,3.69
2022-12-05T00:13:59.918Z,-1.84
2022-12-05T00:16:28.619Z,3.54
2022-12-05T00:18:55.688Z,4.17
2022-12-05T00:21:25.217Z,4.19
2022-12-05T00:23:53.392Z,3.09
2022-12-05T00:26:20.517Z,3.38
2022-12-05T00:28:47.998Z,4.06
2022-12-05T00:31:16.989Z,4.20
2022-12-05T00:33:44.871Z,3.58
2022-12-05T00:36:17.090Z,3.60
2022-12-05T00:38:44.227Z,3.85
2022-12-05T00:41:14.063Z,3.88
2022-12-05T00:43:41.302Z,4.25
2022-12-05T00:46:12.574Z,4.06
2022-12-05T00:48:39.744Z,3.82
2022-12-05T00:51:28.412Z,4.27
2022-12-05T00:53:57.774Z,3.63
2022-12-05T00:56:25.241Z,3.88
2022-12-05T00:58:53.616Z,4.14
2022-12-05T01:01:23.493Z,4.06
2022-12-05T01:03:52.715Z,3.28
2022-12-05T01:06:19.952Z,4.15
2022-12-05T01:08:46.978Z,3.22
2022-12-05T01:11:16.192Z,3.62
2022-12-05T01:13:43.464Z,3.92
2022-12-05T01:16:15.525Z,3.84
2022-12-05T01:18:42.441Z,3.48
2022-12-05T01:21:09.568Z,3.37
2022-12-05T01:23:36.481Z,4.34
2022-12-05T01:26:07.148Z,3.79
2022-12-05T01:28:34.909Z,4.36
2022-12-05T01:31:19.310Z,3.59
2022-12-05T01:33:46.855Z,2.84
2022-12-05T01:36:13.768Z,4.16
2022-12-05T01:38:41.399Z,3.68
2022-12-05T01:41:10.964Z,3.94
2022-12-05T01:44:08.836Z,4.38
2022-12-05T01:46:38.152Z,3.86
2022-12-05T01:49:16.680Z,4.38
2022-12-05T01:51:49.464Z,3.91
2022-12-05T01:54:17.611Z,4.10
2022-12-05T01:56:50.489Z,4.39
2022-12-05T01:59:18.055Z,4.41
2022-12-05T02:04:14.988Z,4.42
2022-12-05T02:06:41.883Z,3.89
2022-12-05T02:09:08.772Z,3.74
2022-12-05T02:11:35.875Z,4.11
2022-12-05T02:14:39.897Z,4.19
2022-12-05T02:17:31.998Z,4.48
2022-12-05T02:20:35.130Z,4.46
2022-12-05T02:23:28.018Z,4.31
2022-12-05T02:26:21.545Z,4.45
2022-12-05T02:29:13.273Z,4.47
2022-12-05T02:32:04.983Z,4.47
2022-12-05T02:34:54.411Z,4.48
2022-12-05T02:37:27.936Z,4.09
2022-12-05T02:40:03.519Z,4.50
2022-12-05T02:42:40.322Z,4.01
2022-12-05T02:45:12.229Z,4.03
2022-12-05T02:47:42.451Z,4.54
2022-12-05T02:50:09.896Z,4.02
2022-12-05T02:52:36.835Z,3.95
2022-12-05T02:55:03.992Z,4.32
2022-12-05T02:57:30.876Z,4.18
2022-12-05T02:59:58.378Z,4.01
2022-12-05T03:02:31.916Z,3.75
2022-12-05T03:05:02.327Z,3.82
2022-12-05T03:07:29.303Z,3.95
2022-12-05T03:10:01.328Z,4.02
2022-12-05T03:12:34.050Z,4.51
2022-12-05T03:15:02.370Z,4.67
2022-12-05T03:17:35.958Z,4.59
2022-12-05T03:20:20.535Z,4.68
2022-12-05T03:22:54.786Z,4.69
2022-12-05T03:25:24.112Z,4.08
2022-12-05T03:27:54.031Z,4.68
2022-12-05T03:30:22.519Z,4.69
2022-12-05T03:33:03.887Z,4.70
2022-12-05T03:35:47.736Z,4.00
2022-12-05T03:38:26.663Z,4.70
2022-12-05T03:40:56.785Z,4.71
2022-12-05T03:43:48.781Z,4.35
2022-12-05T03:46:40.479Z,3.89
2022-12-05T03:49:19.202Z,4.51
2022-12-05T03:52:06.451Z,4.70
2022-12-05T03:54:39.447Z,3.93
2022-12-05T03:57:17.625Z,4.74
2022-12-05T03:59:46.952Z,4.40
2022-12-05T04:02:26.229Z,4.37
2022-12-05T04:05:06.031Z,4.69
2022-12-05T04:07:33.520Z,4.23
2022-12-05T04:10:04.112Z,4.80
2022-12-05T04:12:31.482Z,4.48
2022-12-05T04:15:06.708Z,4.28
2022-12-05T04:17:40.068Z,4.62
2022-12-05T04:20:28.084Z,4.63
2022-12-05T04:22:55.056Z,4.66
2022-12-05T04:25:42.213Z,4.05
2022-12-05T04:28:36.611Z,4.88
2022-12-05T04:31:07.205Z,4.90
2022-12-05T04:33:50.634Z,4.91
2022-12-05T04:36:33.945Z,4.92
2022-12-05T04:39:10.693Z,4.92
2022-12-05T04:41:44.931Z,4.61
2022-12-05T04:44:13.011Z,4.95
2022-12-05T04:46:40.897Z,4.37
2022-12-05T04:49:09.199Z,4.19
2022-12-05T04:51:37.012Z,4.45
2022-12-05T04:55:02.511Z,4.69
2022-12-05T04:57:36.531Z,5.02
2022-12-05T05:00:04.898Z,4.78
2022-12-05T05:02:38.633Z,4.30
2022-12-05T05:05:09.532Z,4.80
2022-12-05T05:07:48.892Z,5.08
2022-12-05T05:10:17.875Z,4.42
2022-12-05T05:12:44.751Z,4.40
2022-12-05T05:15:11.682Z,4.83
2022-12-05T05:17:38.577Z,4.53
2022-12-05T05:20:24.487Z,5.12
2022-12-05T05:22:52.387Z,5.13
2022-12-05T05:25:20.050Z,4.55
2022-12-05T05:27:54.415Z,3.56
2022-12-05T05:30:22.418Z,5.15
2022-12-05T05:32:49.950Z,4.82
2022-12-05T05:35:17.077Z,4.89
2022-12-05T05:37:44.162Z,4.48
2022-12-05T05:40:12.421Z,4.73
2022-12-05T05:42:46.639Z,4.48
2022-12-05T05:45:14.539Z,4.99
2022-12-05T05:47:42.218Z,5.19
2022-12-05T05:50:10.115Z,4.47
2022-12-05T05:52:37.292Z,5.21
2022-12-05T05:55:06.640Z,5.20
2022-12-05T05:57:33.559Z,4.82
2022-12-05T06:00:00.792Z,4.43
2022-12-05T06:02:32.768Z,4.80
2022-12-05T06:04:59.718Z,4.66
2022-12-05T06:07:26.756Z,4.86
2022-12-05T06:09:53.641Z,4.81
2022-12-05T06:12:20.652Z,3.53
2022-12-05T06:14:48.892Z,4.75
2022-12-05T06:17:15.837Z,5.28
2022-12-05T06:19:42.733Z,4.95
2022-12-05T06:22:09.787Z,4.80
2022-12-05T06:24:36.691Z,4.65
2022-12-05T06:27:03.747Z,4.69
2022-12-05T06:29:33.812Z,4.85
2022-12-05T06:32:01.461Z,4.69
2022-12-05T06:34:28.517Z,4.61
2022-12-05T06:36:55.481Z,4.95
2022-12-05T06:39:22.390Z,4.55
2022-12-05T06:41:49.724Z,5.00
2022-12-05T06:44:16.693Z,3.86
2022-12-05T06:46:43.575Z,5.40
2022-12-05T06:49:11.116Z,5.05
2022-12-05T06:51:38.062Z,5.27
2022-12-05T06:54:05.844Z,5.45
2022-12-05T06:56:32.857Z,5.46
2022-12-05T06:58:59.809Z,4.68
2022-12-05T07:01:39.418Z,4.39
2022-12-05T07:04:20.327Z,5.46
2022-12-05T07:06:51.452Z,5.24
2022-12-05T07:09:46.165Z,5.27
2022-12-05T07:12:16.244Z,5.33
2022-12-05T07:14:49.002Z,4.47
2022-12-05T07:17:20.675Z,4.83
2022-12-05T07:19:52.290Z,5.10
2022-12-05T07:22:21.618Z,4.62
2022-12-05T07:24:50.862Z,5.01
2022-12-05T07:27:23.290Z,5.28
2022-12-05T07:29:53.837Z,4.99
2022-12-05T07:32:21.159Z,4.67
2022-12-05T07:34:53.481Z,5.00
2022-12-05T07:37:22.102Z,4.43
2022-12-05T07:39:49.280Z,4.82
2022-12-05T07:42:16.207Z,5.25
2022-12-05T07:44:43.171Z,5.35
2022-12-05T07:47:10.206Z,4.80
2022-12-05T07:49:37.196Z,4.25
2022-12-05T07:52:04.483Z,5.60
2022-12-05T07:54:31.544Z,5.02
2022-12-05T07:56:58.547Z,4.44
2022-12-05T07:59:25.501Z,5.31
2022-12-05T08:01:52.591Z,4.16
2022-12-05T08:04:20.112Z,5.45
2022-12-05T08:06:47.065Z,4.89
2022-12-05T08:09:14.223Z,5.42
2022-12-05T08:11:41.333Z,5.51
2022-12-05T08:14:08.473Z,5.51
2022-12-05T08:16:35.955Z,5.72
2022-12-05T08:19:06.940Z,5.73
2022-12-05T08:21:34.954Z,5.32
2022-12-05T08:24:05.832Z,4.91
2022-12-05T08:26:34.744Z,5.50
2022-12-05T08:29:06.641Z,5.29
2022-12-05T08:31:38.400Z,5.69
2022-12-05T08:34:05.963Z,5.74
2022-12-05T08:36:32.925Z,5.08
2022-12-05T08:39:06.223Z,5.08
2022-12-05T08:41:33.812Z,5.04
2022-12-05T08:44:05.706Z,4.57
2022-12-05T08:46:35.071Z,5.31
2022-12-05T08:49:04.065Z,5.24
2022-12-05T08:51:33.389Z,5.81
2022-12-05T08:54:03.593Z,4.22
2022-12-05T08:56:30.803Z,4.17
2022-12-05T08:59:04.969Z,5.04
2022-12-05T09:01:36.748Z,5.25
2022-12-05T09:04:05.139Z,5.65
2022-12-05T09:06:34.821Z,5.42
2022-12-05T09:09:09.129Z,5.53
2022-12-05T09:11:46.209Z,5.50
2022-12-05T09:14:33.213Z,5.92
2022-12-05T09:17:01.089Z,4.95
2022-12-05T09:19:28.711Z,5.94
2022-12-05T09:21:57.026Z,5.57
2022-12-05T09:24:25.137Z,5.99
2022-12-05T09:26:52.325Z,5.28
2022-12-05T09:29:20.022Z,5.57
2022-12-05T09:31:48.924Z,5.74
2022-12-05T09:34:18.185Z,5.73
2022-12-05T09:36:45.672Z,5.85
2022-12-05T09:39:12.649Z,5.08
2022-12-05T09:42:06.082Z,5.58
2022-12-05T09:45:10.343Z,6.09
2022-12-05T09:47:42.598Z,6.10
2022-12-05T09:51:00.859Z,6.09
2022-12-05T09:53:35.825Z,5.08
2022-12-05T09:56:41.611Z,6.11
2022-12-05T09:59:16.818Z,4.59
2022-12-05T10:02:18.915Z,6.12
2022-12-05T10:05:09.033Z,5.48
2022-12-05T10:08:25.330Z,6.15
2022-12-05T10:11:09.457Z,6.09
2022-12-05T10:14:13.166Z,6.14
2022-12-05T10:16:49.065Z,5.97
2022-12-05T10:19:34.874Z,5.67
2022-12-05T10:22:25.507Z,5.69
2022-12-05T10:24:57.216Z,6.22
2022-12-05T10:27:40.001Z,5.74
2022-12-05T10:30:21.368Z,6.27
2022-12-05T10:33:09.325Z,4.27
2022-12-05T10:35:39.220Z,5.75
2022-12-05T10:38:25.003Z,6.31
2022-12-05T10:40:54.922Z,5.62
2022-12-05T10:43:31.264Z,6.33
2022-12-05T10:45:59.291Z,5.94
2022-12-05T10:48:27.829Z,5.62
2022-12-05T10:50:57.296Z,5.20
2022-12-05T10:53:40.609Z,6.09
2022-12-05T10:56:44.652Z,4.81
2022-12-05T10:59:18.360Z,6.37
2022-12-05T11:01:56.737Z,5.93
2022-12-05T11:04:30.910Z,6.19
2022-12-05T11:07:04.755Z,5.20
2022-12-05T11:09:34.732Z,5.72
2022-12-05T11:12:14.045Z,6.20
2022-12-05T11:14:46.238Z,6.38
2022-12-05T11:17:27.009Z,6.18
2022-12-05T11:19:54.004Z,5.80
2022-12-05T11:22:23.344Z,6.13
2022-12-05T11:24:50.423Z,6.03
2022-12-05T11:27:17.215Z,6.35
2022-12-05T11:29:59.744Z,6.19
2022-12-05T11:32:30.910Z,6.12
2022-12-05T11:35:24.270Z,6.31
2022-12-05T11:37:56.259Z,6.07
2022-12-05T11:40:44.985Z,6.30
2022-12-05T11:43:40.534Z,5.91
2022-12-05T11:46:42.156Z,6.17
2022-12-05T11:49:43.001Z,6.30
2022-12-05T11:52:37.366Z,6.29
2022-12-05T11:55:33.947Z,5.30
2022-12-05T11:58:35.940Z,6.32
2022-12-05T12:01:40.189Z,5.60
2022-12-05T12:04:27.148Z,5.82
2022-12-05T12:07:25.549Z,5.75
2022-12-05T12:10:16.765Z,6.32
2022-12-05T12:13:18.721Z,6.30
2022-12-05T12:16:22.150Z,6.28
2022-12-05T12:19:11.098Z,6.28
2022-12-05T12:22:27.176Z,6.27
2022-12-05T12:25:38.975Z,6.23
2022-12-05T12:28:42.311Z,6.22
2022-12-05T12:31:23.761Z,4.87
2022-12-05T12:34:17.398Z,5.86
2022-12-05T12:36:55.906Z,5.84
2022-12-05T12:39:44.859Z,6.22
2022-12-05T12:42:47.524Z,6.23
2022-12-05T12:45:39.994Z,6.24
2022-12-05T12:48:41.470Z,5.85
2022-12-05T12:51:13.178Z,6.24
2022-12-05T12:54:01.822Z,6.23
2022-12-05T12:57:14.574Z,6.24
2022-12-05T13:00:07.563Z,6.23
2022-12-05T13:03:10.783Z,5.39
2022-12-05T13:05:54.347Z,6.09
2022-12-05T13:08:31.177Z,6.23
2022-12-05T13:10:59.111Z,5.33
2022-12-05T13:13:47.383Z,6.11
2022-12-05T13:16:34.867Z,6.24
2022-12-05T13:19:03.238Z,5.58
2022-12-05T13:21:30.475Z,5.66
2022-12-05T13:24:03.475Z,5.43
2022-12-05T13:26:32.468Z,6.25
2022-12-05T13:29:04.685Z,6.07
2022-12-05T13:32:04.754Z,6.24
2022-12-05T13:35:11.572Z,5.96
2022-12-05T13:38:05.645Z,6.11
2022-12-05T13:40:57.789Z,6.03
2022-12-05T13:43:29.145Z,6.07
2022-12-05T13:46:11.801Z,5.86
2022-12-05T13:48:42.405Z,6.25
2022-12-05T13:51:12.857Z,5.72
2022-12-05T13:53:57.885Z,6.12
2022-12-05T13:56:28.654Z,6.27
2022-12-05T13:58:58.439Z,6.07
2022-12-05T14:01:26.088Z,6.29
2022-12-05T14:04:02.247Z,6.29
2022-12-05T14:06:41.023Z,6.31
2022-12-05T14:09:20.787Z,6.32
2022-12-05T14:12:12.571Z,6.31
2022-12-05T14:14:58.145Z,6.31
2022-12-05T14:17:32.412Z,6.31
2022-12-05T14:20:11.122Z,6.31
2022-12-05T14:23:11.945Z,6.30
2022-12-05T14:26:04.351Z,5.83
2022-12-05T14:29:03.094Z,6.28
2022-12-05T14:32:14.416Z,6.28
2022-12-05T14:35:06.421Z,6.28
2022-12-05T14:37:34.966Z,6.09
2022-12-05T14:40:31.564Z,6.23
2022-12-05T14:43:10.344Z,5.39
2022-12-05T14:45:40.983Z,5.45
2022-12-05T14:48:13.828Z,6.27
2022-12-05T14:50:45.030Z,6.07
2022-12-05T14:53:15.176Z,6.28
2022-12-05T14:55:44.681Z,6.06
2022-12-05T14:58:36.168Z,6.11
2022-12-05T15:01:18.533Z,6.31
2022-12-05T15:04:13.619Z,6.31
2022-12-05T15:06:55.314Z,6.30
2022-12-05T15:09:38.243Z,6.30
2022-12-05T15:12:20.467Z,5.34
2022-12-05T15:15:05.914Z,5.94
2022-12-05T15:17:52.175Z,5.61
2022-12-05T15:20:40.862Z,6.06
2022-12-05T15:24:00.239Z,5.88
2022-12-05T15:27:02.619Z,6.16
2022-12-05T15:29:32.953Z,6.12
2022-12-05T15:32:02.487Z,5.95
2022-12-05T15:34:44.116Z,5.55
2022-12-05T15:37:16.632Z,6.32
2022-12-05T15:39:59.696Z,5.77
2022-12-05T15:42:37.018Z,6.14
2022-12-05T15:45:15.746Z,6.33
2022-12-05T15:47:45.571Z,5.59
2022-12-05T15:50:22.059Z,4.77
2022-12-05T15:52:58.820Z,6.15
2022-12-05T15:55:47.657Z,6.35
2022-12-05T15:58:50.268Z,5.83
2022-12-05T16:01:21.084Z,6.32
2022-12-05T16:03:55.624Z,6.31
2022-12-05T16:06:31.649Z,5.47
2022-12-05T16:09:00.001Z,5.94
2022-12-05T16:11:27.103Z,6.27
2022-12-05T16:14:01.577Z,6.30
2022-12-05T16:16:33.663Z,6.12
2022-12-05T16:19:16.456Z,6.08
2022-12-05T16:21:59.233Z,5.59
2022-12-05T16:24:32.235Z,6.14
2022-12-05T16:27:04.664Z,4.89
2022-12-05T16:29:34.299Z,6.13
2022-12-05T16:32:04.543Z,5.92
2022-12-05T16:34:34.548Z,6.35
2022-12-05T16:37:01.964Z,5.74
2022-12-05T16:39:29.105Z,6.36
2022-12-05T16:41:56.576Z,6.03
2022-12-05T16:44:48.651Z,6.32
2022-12-05T16:47:28.874Z,6.31
2022-12-05T16:49:55.920Z,5.71
2022-12-05T16:52:23.116Z,5.90
2022-12-05T16:54:50.704Z,6.29
2022-12-05T16:57:17.854Z,6.22
2022-12-05T16:59:48.661Z,6.12
2022-12-05T17:02:19.072Z,6.16
2022-12-05T17:04:47.076Z,5.33
2022-12-05T17:07:14.092Z,6.09
2022-12-05T17:09:41.054Z,6.17
2022-12-05T17:12:24.206Z,5.76
2022-12-05T17:14:51.173Z,5.99
2022-12-05T17:17:19.098Z,5.72
2022-12-05T17:19:46.274Z,5.97
2022-12-05T17:22:15.650Z,6.15
2022-12-05T17:24:42.898Z,5.76
2022-12-05T17:27:13.343Z,5.76
2022-12-05T17:29:40.332Z,6.35
2022-12-05T17:32:07.282Z,6.33
2022-12-05T17:34:34.504Z,5.74
2022-12-05T17:37:02.649Z,6.16
2022-12-05T17:39:29.696Z,6.08
2022-12-05T17:41:56.805Z,4.86
2022-12-05T17:44:24.110Z,4.94
2022-12-05T17:46:51.214Z,5.65
2022-12-05T17:49:18.618Z,5.74
2022-12-05T17:52:20.018Z,6.10
2022-12-05T17:54:32.984Z,5.81
2022-12-05T17:56:59.953Z,6.02
2022-12-05T17:59:26.969Z,6.02
2022-12-05T18:01:53.948Z,6.28
2022-12-05T18:04:23.292Z,6.05
2022-12-05T18:06:51.361Z,6.28
2022-12-05T18:09:18.787Z,6.02
2022-12-05T18:11:45.789Z,5.33
2022-12-05T18:14:12.757Z,5.52
2022-12-05T18:16:39.785Z,6.30
2022-12-05T18:19:08.293Z,6.04
2022-12-05T18:21:36.009Z,5.86
2022-12-05T18:24:03.045Z,6.08
2022-12-05T18:26:30.070Z,5.73
2022-12-05T18:28:58.988Z,5.58
2022-12-05T18:31:26.619Z,5.27
2022-12-05T18:33:53.731Z,5.59
2022-12-05T18:36:21.757Z,5.56
2022-12-05T18:38:54.527Z,5.99
2022-12-05T18:41:23.745Z,6.33
2022-12-05T18:43:51.291Z,6.12
2022-12-05T18:46:18.999Z,5.71
2022-12-05T18:48:47.953Z,5.89
2022-12-05T18:51:22.995Z,5.68
2022-12-05T18:53:52.881Z,6.12
2022-12-05T18:56:31.876Z,6.33
2022-12-05T18:59:04.902Z,5.69
2022-12-05T19:01:34.819Z,6.32
2022-12-05T19:04:03.972Z,5.65
2022-12-05T19:06:33.099Z,5.93
2022-12-05T19:09:03.925Z,6.31
2022-12-05T19:11:31.562Z,6.32
2022-12-05T19:14:01.399Z,6.15
2022-12-05T19:16:30.987Z,6.13
2022-12-05T19:19:00.889Z,6.14
2022-12-05T19:21:30.885Z,5.91
2022-12-05T19:23:58.796Z,6.11
2022-12-05T19:26:26.696Z,5.74
2022-12-05T19:28:53.819Z,5.87
2022-12-05T19:31:23.919Z,5.91
2022-12-05T19:33:54.330Z,5.94
2022-12-05T19:36:24.438Z,4.43
2022-12-05T19:38:53.904Z,5.80
2022-12-05T19:41:31.285Z,5.76
2022-12-05T19:44:01.767Z,6.07
2022-12-05T19:46:31.305Z,5.99
2022-12-05T19:49:02.692Z,5.25
2022-12-05T19:51:31.601Z,5.92
2022-12-05T19:54:00.685Z,5.67
2022-12-05T19:56:30.008Z,6.33
2022-12-05T19:58:58.765Z,5.93
2022-12-05T20:01:33.443Z,5.66
2022-12-05T20:04:03.416Z,6.33
2022-12-05T20:06:37.569Z,5.96
2022-12-05T20:09:05.949Z,5.70
2022-12-05T20:11:33.219Z,6.11
2022-12-05T20:14:01.374Z,5.28
2022-12-05T20:16:29.355Z,5.95
2022-12-05T20:18:59.367Z,6.34
2022-12-05T20:21:29.931Z,6.33
2022-12-05T20:23:58.884Z,6.06
2022-12-05T20:26:29.561Z,5.74
2022-12-05T20:28:58.776Z,5.57
2022-12-05T20:31:31.948Z,5.86
2022-12-05T20:33:58.993Z,5.97
2022-12-05T20:36:29.997Z,5.65
2022-12-05T20:38:59.890Z,6.21
2022-12-05T20:41:27.300Z,6.13
2022-12-05T20:44:03.391Z,6.35
2022-12-05T20:46:31.717Z,5.65
2022-12-05T20:48:59.419Z,6.12
2022-12-05T20:51:32.325Z,5.69
2022-12-05T20:54:01.483Z,5.94
2022-12-05T20:56:31.730Z,6.33
2022-12-05T20:59:01.587Z,6.14
2022-12-05T21:01:31.038Z,5.60
2022-12-05T21:03:58.376Z,6.08
2022-12-05T21:06:31.796Z,5.31
2022-12-05T21:08:59.809Z,6.35
2022-12-05T21:11:29.241Z,5.70
2022-12-05T21:14:00.228Z,6.37
2022-12-05T21:16:27.993Z,5.72
2022-12-05T21:18:56.141Z,5.92
2022-12-05T21:21:25.750Z,5.55
2022-12-05T21:23:58.921Z,6.17
2022-12-05T21:26:31.006Z,6.36
2022-12-05T21:28:59.232Z,5.99
2022-12-05T21:31:32.021Z,5.84
2022-12-05T21:34:02.882Z,5.80
2022-12-05T21:36:32.001Z,6.35
2022-12-05T21:38:59.254Z,6.10
2022-12-05T21:41:26.777Z,6.19
2022-12-05T21:43:55.639Z,6.34
2022-12-05T21:46:26.592Z,5.75
2022-12-05T21:48:54.374Z,5.67
2022-12-05T21:51:22.576Z,6.34
2022-12-05T21:53:50.566Z,5.91
2022-12-05T21:56:22.828Z,6.15
2022-12-05T21:58:50.130Z,6.32
2022-12-05T22:01:28.333Z,5.62
2022-12-05T22:04:00.927Z,5.68
2022-12-05T22:06:30.965Z,6.08
2022-12-05T22:08:57.912Z,5.68
2022-12-05T22:11:25.595Z,5.74
2022-12-05T22:13:52.990Z,6.29
2022-12-05T22:16:20.585Z,6.17
2022-12-05T22:18:48.797Z,5.94
2022-12-05T22:21:19.930Z,5.85
2022-12-05T22:23:47.681Z,5.75
2022-12-05T22:26:24.424Z,6.00
2022-12-05T22:28:53.242Z,6.32
2022-12-05T22:31:21.437Z,5.70
2022-12-05T22:33:48.856Z,6.13
2022-12-05T22:36:17.712Z,6.06
2022-12-05T22:38:47.381Z,5.97
2022-12-05T22:41:23.463Z,6.02
2022-12-05T22:43:56.332Z,6.34
2022-12-05T22:46:25.050Z,6.10
2022-12-05T22:48:52.293Z,5.36
2022-12-05T22:51:20.937Z,6.07
2022-12-05T22:53:51.729Z,5.50
2022-12-05T22:56:20.349Z,6.13
2022-12-05T22:58:47.988Z,5.95
2022-12-05T23:01:26.115Z,5.73
2022-12-05T23:04:05.347Z,6.12
2022-12-05T23:06:34.292Z,5.91
2022-12-05T23:09:02.291Z,5.93
2022-12-05T23:11:30.876Z,6.10
2022-12-05T23:14:02.177Z,6.05
2022-12-05T23:16:32.113Z,6.12
2022-12-05T23:19:02.713Z,5.68
2022-12-05T23:21:36.649Z,5.48
2022-12-05T23:24:07.364Z,6.24
2022-12-05T23:26:38.496Z,6.31
2022-12-05T23:29:08.211Z,6.31
2022-12-05T23:31:35.936Z,6.14
2022-12-05T23:34:04.255Z,5.95
2022-12-05T23:36:32.950Z,5.74
2022-12-05T23:39:00.394Z,6.13
2022-12-05T23:41:27.746Z,6.17
2022-12-05T23:43:54.863Z,6.17
2022-12-05T23:46:25.924Z,6.17
2022-12-05T23:48:53.518Z,6.14
2022-12-05T23:51:30.903Z,6.00
2022-12-05T23:54:01.369Z,6.03
2022-12-05T23:56:31.643Z,6.19
2022-12-05T23:58:58.964Z,6.37
